createdAt,value
2022-08-02T00:00:09.440Z,1.30
2022-08-02T00:02:36.236Z,0.98
2022-08-02T00:05:03.108Z,1.05
2022-08-02T00:07:29.854Z,2.20
2022-08-02T00:09:56.581Z,1.00
2022-08-02T00:12:23.331Z,1.05
2022-08-02T00:14:50.045Z,0.93
2022-08-02T00:17:16.993Z,1.38
2022-08-02T00:19:44.106Z,1.25
2022-08-02T00:22:11.226Z,1.15
2022-08-02T00:24:38.131Z,1.30
2022-08-02T00:27:05.047Z,1.00
2022-08-02T00:29:51.976Z,1.02
2022-08-02T00:32:19.614Z,0.90
2022-08-02T00:34:46.362Z,1.02
2022-08-02T00:37:13.261Z,0.90
2022-08-02T00:39:40.115Z,1.15
2022-08-02T00:44:54.131Z,1.20
2022-08-02T00:47:20.911Z,1.08
2022-08-02T00:49:47.702Z,1.23
2022-08-02T00:52:14.925Z,1.13
2022-08-02T00:54:41.980Z,1.10
2022-08-02T00:57:08.789Z,1.15
2022-08-02T00:59:35.558Z,1.13
2022-08-02T01:02:02.381Z,1.13
2022-08-02T01:04:30.496Z,1.52
2022-08-02T01:07:01.870Z,1.27
2022-08-02T01:09:28.643Z,1.20
2022-08-02T01:11:55.633Z,1.20
2022-08-02T01:14:24.563Z,1.52
2022-08-02T01:17:00.585Z,1.20
2022-08-02T01:19:32.832Z,1.00
2022-08-02T01:22:20.463Z,1.48
2022-08-02T01:25:19.527Z,1.30
2022-08-02T01:28:23.811Z,0.93
2022-08-02T01:30:56.744Z,1.38
2022-08-02T01:33:26.465Z,1.40
2022-08-02T01:35:55.253Z,1.00
2022-08-02T01:38:28.457Z,0.80
2022-08-02T01:40:56.841Z,1.40
2022-08-02T01:43:23.634Z,1.50
2022-08-02T01:45:51.245Z,1.20
2022-08-02T01:48:19.186Z,1.33
2022-08-02T01:50:47.318Z,1.48
2022-08-02T01:53:14.308Z,1.10
2022-08-02T01:55:57.838Z,1.30
2022-08-02T01:58:28.582Z,1.00
2022-08-02T02:00:56.942Z,1.02
2022-08-02T02:03:24.902Z,1.30
2022-08-02T02:05:54.753Z,1.10
2022-08-02T02:08:38.400Z,1.23
2022-08-02T02:12:06.259Z,1.25
2022-08-02T02:13:53.316Z,1.60
2022-08-02T02:16:20.188Z,1.05
2022-08-02T02:18:47.353Z,1.25
2022-08-02T02:21:15.113Z,1.30
2022-08-02T02:23:43.727Z,1.25
2022-08-02T02:26:13.059Z,1.15
2022-08-02T02:28:40.520Z,1.70
2022-08-02T02:31:14.014Z,1.27
2022-08-02T02:33:43.523Z,1.05
2022-08-02T02:36:11.268Z,1.20
2022-08-02T02:38:38.774Z,1.13
2022-08-02T02:41:06.846Z,1.20
2022-08-02T02:43:34.541Z,1.60
2022-08-02T02:46:04.021Z,1.38
2022-08-02T02:48:31.240Z,1.42
2022-08-02T02:50:59.091Z,1.35
2022-08-02T02:53:25.982Z,2.17
2022-08-02T02:56:01.810Z,1.50
2022-08-02T02:58:30.295Z,1.60
2022-08-02T03:01:15.542Z,1.60
2022-08-02T03:03:44.232Z,1.42
2022-08-02T03:06:14.913Z,1.33
2022-08-02T03:08:42.614Z,1.70
2022-08-02T03:11:10.406Z,1.75
2022-08-02T03:13:37.754Z,1.70
2022-08-02T03:16:04.883Z,1.42
2022-08-02T03:18:32.331Z,1.60
2022-08-02T03:21:00.868Z,1.45
2022-08-02T03:23:27.593Z,1.60
2022-08-02T03:25:54.289Z,1.45
2022-08-02T03:28:20.988Z,1.42
2022-08-02T03:30:47.755Z,1.80
2022-08-02T03:33:14.692Z,1.50
2022-08-02T03:35:43.256Z,1.30
2022-08-02T03:38:10.793Z,1.40
2022-08-02T03:40:37.759Z,1.40
2022-08-02T03:43:05.594Z,1.75
2022-08-02T03:45:33.165Z,1.77
2022-08-02T03:48:00.134Z,1.58
2022-08-02T03:50:26.979Z,1.80
2022-08-02T03:52:53.962Z,1.50
2022-08-02T03:55:20.711Z,1.80
2022-08-02T03:57:47.468Z,1.90
2022-08-02T04:00:19.772Z,1.52
2022-08-02T04:02:46.757Z,1.42
2022-08-02T04:05:13.697Z,1.38
2022-08-02T04:08:03.580Z,1.85
2022-08-02T04:10:27.263Z,1.55
2022-08-02T04:12:55.029Z,1.40
2022-08-02T04:15:23.048Z,1.95
2022-08-02T04:17:57.456Z,2.00
2022-08-02T04:20:29.125Z,1.88
2022-08-02T04:23:00.971Z,1.42
2022-08-02T04:25:38.215Z,1.73
2022-08-02T04:28:17.687Z,1.35
2022-08-02T04:30:46.772Z,1.60
2022-08-02T04:33:13.771Z,1.40
2022-08-02T04:35:40.586Z,1.60
2022-08-02T04:38:10.267Z,1.77
2022-08-02T04:40:37.950Z,1.65
2022-08-02T04:43:04.656Z,1.77
2022-08-02T04:45:31.635Z,2.00
2022-08-02T04:48:06.231Z,1.65
2022-08-02T04:50:33.912Z,2.28
2022-08-02T04:53:00.825Z,1.85
2022-08-02T04:55:29.273Z,1.80
2022-08-02T04:57:59.474Z,1.88
2022-08-02T05:00:28.127Z,1.50
2022-08-02T05:02:58.380Z,1.50
2022-08-02T05:05:25.699Z,1.60
2022-08-02T05:07:52.554Z,1.88
2022-08-02T05:10:19.690Z,1.55
2022-08-02T05:12:46.500Z,2.20
2022-08-02T05:15:13.840Z,1.67
2022-08-02T05:17:47.448Z,1.70
2022-08-02T05:20:18.969Z,1.63
2022-08-02T05:22:46.032Z,2.00
2022-08-02T05:25:12.908Z,1.60
2022-08-02T05:27:39.929Z,1.83
2022-08-02T05:30:07.609Z,1.35
2022-08-02T05:32:34.739Z,1.90
2022-08-02T05:35:02.264Z,1.83
2022-08-02T05:37:31.870Z,1.50
2022-08-02T05:39:58.822Z,1.52
2022-08-02T05:42:27.742Z,1.40
2022-08-02T05:44:55.430Z,1.67
2022-08-02T05:47:24.269Z,1.90
2022-08-02T05:49:50.979Z,1.38
2022-08-02T05:52:19.235Z,2.00
2022-08-02T05:55:16.360Z,1.75
2022-08-02T05:57:52.743Z,1.60
2022-08-02T06:00:20.687Z,1.80
2022-08-02T06:03:22.769Z,2.10
2022-08-02T06:06:06.377Z,2.58
2022-08-02T06:08:48.490Z,2.45
2022-08-02T06:11:23.511Z,2.40
2022-08-02T06:13:51.777Z,2.20
2022-08-02T06:16:32.244Z,2.05
2022-08-02T06:19:00.546Z,1.83
2022-08-02T06:22:31.970Z,1.85
2022-08-02T06:24:18.241Z,1.65
2022-08-02T06:26:45.219Z,1.67
2022-08-02T06:29:12.561Z,1.80
2022-08-02T06:31:41.576Z,1.73
2022-08-02T06:34:14.464Z,1.50
2022-08-02T06:36:51.062Z,1.60
2022-08-02T06:39:45.255Z,1.27
2022-08-02T06:42:26.840Z,1.90
2022-08-02T06:44:57.720Z,1.35
2022-08-02T06:47:25.727Z,1.50
2022-08-02T06:49:54.207Z,1.33
2022-08-02T06:52:33.491Z,1.50
2022-08-02T06:55:01.421Z,1.40
2022-08-02T06:57:29.204Z,1.30
2022-08-02T06:59:56.042Z,1.58
2022-08-02T07:02:23.021Z,1.73
2022-08-02T07:04:50.123Z,1.35
2022-08-02T07:07:16.962Z,1.73
2022-08-02T07:09:57.710Z,1.65
2022-08-02T07:12:33.684Z,1.30
2022-08-02T07:15:02.478Z,1.02
2022-08-02T07:17:29.999Z,1.40
2022-08-02T07:19:57.657Z,1.30
2022-08-02T07:22:27.305Z,1.25
2022-08-02T07:24:56.133Z,1.30
2022-08-02T07:27:23.031Z,1.30
2022-08-02T07:29:49.838Z,1.00
2022-08-02T07:32:17.856Z,1.20
2022-08-02T07:34:50.539Z,1.50
2022-08-02T07:37:35.379Z,0.90
2022-08-02T07:40:12.714Z,1.33
2022-08-02T07:42:44.741Z,1.00
2022-08-02T07:45:12.769Z,1.10
2022-08-02T07:47:44.126Z,1.00
2022-08-02T07:50:12.386Z,0.82
2022-08-02T07:52:40.931Z,1.13
2022-08-02T07:55:08.795Z,1.00
2022-08-02T07:57:36.426Z,1.10
2022-08-02T08:00:05.255Z,1.00
2022-08-02T08:02:38.506Z,1.40
2022-08-02T08:05:07.161Z,1.13
2022-08-02T08:07:34.962Z,0.90
2022-08-02T08:10:02.228Z,0.80
2022-08-02T08:12:29.141Z,1.00
2022-08-02T08:14:55.894Z,0.90
2022-08-02T08:17:23.245Z,1.13
2022-08-02T08:19:52.577Z,1.08
2022-08-02T08:22:21.034Z,0.90
2022-08-02T08:24:48.992Z,1.00
2022-08-02T08:27:17.228Z,0.98
2022-08-02T08:29:44.595Z,0.70
2022-08-02T08:32:17.878Z,1.00
2022-08-02T08:34:48.369Z,0.98
2022-08-02T08:37:17.769Z,0.90
2022-08-02T08:39:58.158Z,1.00
2022-08-02T08:42:29.996Z,0.90
2022-08-02T08:44:57.793Z,0.90
2022-08-02T08:47:34.572Z,0.95
2022-08-02T08:50:04.970Z,0.70
2022-08-02T08:52:35.845Z,0.95
2022-08-02T08:55:05.267Z,1.40
2022-08-02T08:57:32.513Z,0.80
2022-08-02T08:59:59.435Z,1.00
2022-08-02T09:02:28.304Z,0.80
2022-08-02T09:04:55.824Z,0.90
2022-08-02T09:07:23.566Z,1.08
2022-08-02T09:09:50.474Z,0.77
2022-08-02T09:12:19.710Z,1.05
2022-08-02T09:14:50.160Z,0.90
2022-08-02T09:17:18.302Z,0.70
2022-08-02T09:19:46.145Z,0.90
2022-08-02T09:22:15.879Z,0.98
2022-08-02T09:24:48.805Z,2.33
2022-08-02T09:27:21.821Z,1.33
2022-08-02T09:30:11.701Z,1.17
2022-08-02T09:32:46.051Z,0.77
2022-08-02T09:35:12.885Z,0.93
2022-08-02T09:37:39.705Z,0.90
2022-08-02T09:40:10.770Z,1.08
2022-08-02T09:42:37.735Z,0.95
2022-08-02T09:45:05.911Z,0.60
2022-08-02T09:47:37.295Z,0.80
2022-08-02T09:50:04.673Z,0.77
2022-08-02T09:52:37.413Z,1.00
2022-08-02T09:55:11.683Z,0.75
2022-08-02T09:57:38.945Z,1.02
2022-08-02T10:00:16.230Z,0.85
2022-08-02T10:03:16.665Z,0.60
2022-08-02T10:06:02.954Z,1.08
2022-08-02T10:08:33.089Z,1.08
2022-08-02T10:11:01.099Z,1.00
2022-08-02T10:13:33.758Z,1.00
2022-08-02T10:16:00.852Z,0.70
2022-08-02T10:18:42.802Z,1.10
2022-08-02T10:21:21.548Z,0.85
2022-08-02T10:23:50.209Z,0.88
2022-08-02T10:26:20.503Z,0.98
2022-08-02T10:28:49.590Z,0.70
2022-08-02T10:31:22.141Z,1.10
2022-08-02T10:33:50.454Z,1.30
2022-08-02T10:36:17.949Z,1.15
2022-08-02T10:38:44.934Z,0.93
2022-08-02T10:41:11.935Z,1.10
2022-08-02T10:43:44.336Z,1.00
2022-08-02T10:46:30.488Z,0.70
2022-08-02T10:49:29.773Z,0.70
2022-08-02T10:51:55.135Z,0.70
2022-08-02T10:54:26.973Z,0.80
2022-08-02T10:56:56.242Z,0.77
2022-08-02T10:59:32.950Z,0.80
2022-08-02T11:02:05.393Z,0.85
2022-08-02T11:04:38.100Z,0.82
2022-08-02T11:07:15.041Z,0.70
2022-08-02T11:09:42.508Z,0.70
2022-08-02T11:12:14.675Z,0.90
2022-08-02T11:14:43.923Z,0.73
2022-08-02T11:17:18.240Z,0.95
2022-08-02T11:20:12.926Z,0.70
2022-08-02T11:22:40.647Z,1.10
2022-08-02T11:25:23.018Z,0.80
2022-08-02T11:27:57.861Z,1.10
2022-08-02T11:30:26.618Z,0.77
2022-08-02T11:33:00.749Z,0.70
2022-08-02T11:35:34.174Z,0.90
2022-08-02T11:38:21.577Z,0.80
2022-08-02T11:40:49.112Z,0.60
2022-08-02T11:43:20.806Z,0.60
2022-08-02T11:45:49.438Z,0.90
2022-08-02T11:48:29.765Z,0.90
2022-08-02T11:51:16.301Z,0.95
2022-08-02T11:53:53.558Z,1.23
2022-08-02T11:56:28.758Z,0.93
2022-08-02T11:59:09.804Z,1.00
2022-08-02T12:01:45.187Z,0.90
2022-08-02T12:04:17.123Z,0.90
2022-08-02T12:06:44.150Z,0.80
2022-08-02T12:09:19.046Z,0.90
2022-08-02T12:11:50.226Z,0.80
2022-08-02T12:14:17.139Z,0.50
2022-08-02T12:17:03.186Z,1.00
2022-08-02T12:19:30.089Z,0.98
2022-08-02T12:22:29.549Z,0.90
2022-08-02T12:24:57.440Z,0.70
2022-08-02T12:27:35.942Z,0.70
2022-08-02T12:30:10.036Z,0.80
2022-08-02T12:32:37.557Z,0.75
2022-08-02T12:35:07.349Z,0.80
2022-08-02T12:37:34.898Z,0.73
2022-08-02T12:40:25.584Z,0.57
2022-08-02T12:43:20.247Z,0.82
2022-08-02T12:45:55.041Z,0.70
2022-08-02T12:48:48.167Z,0.70
2022-08-02T12:51:25.247Z,1.10
2022-08-02T12:54:17.829Z,1.00
2022-08-02T12:56:45.673Z,1.40
2022-08-02T12:59:12.648Z,1.00
2022-08-02T13:01:39.941Z,1.10
2022-08-02T13:04:11.736Z,1.08
2022-08-02T13:06:45.516Z,1.13
2022-08-02T13:09:15.591Z,1.02
2022-08-02T13:11:43.247Z,0.80
2022-08-02T13:14:11.082Z,1.00
2022-08-02T13:16:37.994Z,1.10
2022-08-02T13:19:05.065Z,1.10
2022-08-02T13:21:41.553Z,1.15
2022-08-02T13:24:38.255Z,1.15
2022-08-02T13:27:08.696Z,1.33
2022-08-02T13:29:37.306Z,1.30
2022-08-02T13:32:04.215Z,1.02
2022-08-02T13:34:30.914Z,1.05
2022-08-02T13:36:57.657Z,1.15
2022-08-02T13:39:24.373Z,0.98
2022-08-02T13:41:51.229Z,1.10
2022-08-02T13:44:18.084Z,1.05
2022-08-02T13:46:46.116Z,1.10
2022-08-02T13:49:18.884Z,0.98
2022-08-02T13:51:50.136Z,1.30
2022-08-02T13:54:17.132Z,1.08
2022-08-02T13:56:44.103Z,1.27
2022-08-02T13:59:53.939Z,1.23
2022-08-02T14:01:58.979Z,1.10
2022-08-02T14:04:26.378Z,1.40
2022-08-02T14:06:53.115Z,1.35
2022-08-02T14:09:19.955Z,1.20
2022-08-02T14:11:47.129Z,1.10
2022-08-02T14:14:16.415Z,1.15
2022-08-02T14:16:44.411Z,1.05
2022-08-02T14:19:16.582Z,1.35
2022-08-02T14:21:46.507Z,0.93
2022-08-02T14:24:18.603Z,1.15
2022-08-02T14:26:45.968Z,1.30
2022-08-02T14:29:13.591Z,1.20
2022-08-02T14:31:44.305Z,1.40
2022-08-02T14:34:11.807Z,1.00
2022-08-02T14:36:39.281Z,1.05
2022-08-02T14:39:06.434Z,1.23
2022-08-02T14:41:58.467Z,1.08
2022-08-02T14:44:23.639Z,1.05
2022-08-02T14:46:51.892Z,1.23
2022-08-02T14:49:24.320Z,1.10
2022-08-02T14:51:56.518Z,1.08
2022-08-02T14:54:28.138Z,1.30
2022-08-02T14:57:01.945Z,1.35
2022-08-02T14:59:29.147Z,1.00
2022-08-02T15:01:56.474Z,1.17
2022-08-02T15:04:23.255Z,1.20
2022-08-02T15:06:50.100Z,1.10
2022-08-02T15:09:16.832Z,0.85
2022-08-02T15:11:46.986Z,1.13
2022-08-02T15:14:15.307Z,0.90
2022-08-02T15:16:56.145Z,1.23
2022-08-02T15:19:26.411Z,1.05
2022-08-02T15:22:15.970Z,1.00
2022-08-02T15:24:44.428Z,1.10
2022-08-02T15:27:14.185Z,1.08
2022-08-02T15:29:42.174Z,1.13
2022-08-02T15:32:09.190Z,1.17
2022-08-02T15:34:36.095Z,1.10
2022-08-02T15:37:02.972Z,1.20
2022-08-02T15:39:30.005Z,1.30
2022-08-02T15:41:56.795Z,1.27
2022-08-02T15:44:25.002Z,0.98
2022-08-02T15:46:52.038Z,1.02
2022-08-02T15:49:20.884Z,1.10
2022-08-02T15:51:48.037Z,1.05
2022-08-02T15:54:14.813Z,0.90
2022-08-02T15:56:41.719Z,1.27
2022-08-02T15:59:08.612Z,1.10
2022-08-02T16:01:37.821Z,1.27
2022-08-02T16:04:07.521Z,0.98
2022-08-02T16:06:35.846Z,1.02
2022-08-02T16:09:03.136Z,1.10
2022-08-02T16:11:30.075Z,0.90
2022-08-02T16:13:59.186Z,1.20
2022-08-02T16:16:31.519Z,0.93
2022-08-02T16:18:58.781Z,1.00
2022-08-02T16:21:26.291Z,1.27
2022-08-02T16:23:59.134Z,1.10
2022-08-02T16:26:34.363Z,0.90
2022-08-02T16:29:03.523Z,1.42
2022-08-02T16:31:30.610Z,0.90
2022-08-02T16:33:57.717Z,1.10
2022-08-02T16:36:25.977Z,1.13
2022-08-02T16:38:53.630Z,1.08
2022-08-02T16:41:20.639Z,1.00
2022-08-02T16:43:47.379Z,1.58
2022-08-02T16:46:14.547Z,1.40
2022-08-02T16:48:41.660Z,1.00
2022-08-02T16:51:18.878Z,0.82
2022-08-02T16:54:00.372Z,1.00
2022-08-02T16:56:28.994Z,1.05
2022-08-02T16:58:59.975Z,1.13
2022-08-02T17:01:28.207Z,1.33
2022-08-02T17:04:15.613Z,1.00
2022-08-02T17:06:47.719Z,1.00
2022-08-02T17:10:03.478Z,0.98
2022-08-02T17:12:09.923Z,1.25
2022-08-02T17:14:42.132Z,1.23
2022-08-02T17:17:21.594Z,1.10
2022-08-02T17:19:48.541Z,1.02
2022-08-02T17:22:17.658Z,1.20
2022-08-02T17:24:44.742Z,1.33
2022-08-02T17:27:17.266Z,1.45
2022-08-02T17:29:44.242Z,1.25
2022-08-02T17:32:13.067Z,1.20
2022-08-02T17:34:39.991Z,1.33
2022-08-02T17:37:16.095Z,1.80
2022-08-02T17:39:44.008Z,1.02
2022-08-02T17:42:19.892Z,1.48
2022-08-02T17:44:49.217Z,1.08
2022-08-02T17:47:16.356Z,1.42
2022-08-02T17:49:48.556Z,1.00
2022-08-02T17:52:50.383Z,1.10
2022-08-02T17:55:19.572Z,1.20
2022-08-02T17:57:57.993Z,1.25
2022-08-02T18:00:33.923Z,1.30
2022-08-02T18:03:05.563Z,1.20
2022-08-02T18:05:39.965Z,1.00
2022-08-02T18:08:08.926Z,1.30
2022-08-02T18:10:35.779Z,1.20
2022-08-02T18:13:03.595Z,1.30
2022-08-02T18:15:32.481Z,1.30
2022-08-02T18:18:00.408Z,1.50
2022-08-02T18:20:27.181Z,1.50
2022-08-02T18:22:55.632Z,1.20
2022-08-02T18:25:37.541Z,1.48
2022-08-02T18:28:12.298Z,4.03
2022-08-02T18:30:39.353Z,2.00
2022-08-02T18:33:58.735Z,2.13
2022-08-02T18:35:56.065Z,1.55
2022-08-02T18:38:25.070Z,2.05
2022-08-02T18:40:55.105Z,1.92
2022-08-02T18:43:25.339Z,1.73
2022-08-02T18:46:05.273Z,1.60
2022-08-02T18:48:37.608Z,1.50
2022-08-02T18:51:06.350Z,1.55
2022-08-02T18:53:41.313Z,1.60
2022-08-02T18:56:19.872Z,1.75
2022-08-02T18:58:55.145Z,1.60
2022-08-02T19:01:32.299Z,1.30
2022-08-02T19:04:02.271Z,1.27
2022-08-02T19:06:29.693Z,1.50
2022-08-02T19:09:05.295Z,1.88
2022-08-02T19:11:35.275Z,1.88
2022-08-02T19:14:02.412Z,2.72
2022-08-02T19:16:36.793Z,2.30
2022-08-02T19:19:05.788Z,2.05
2022-08-02T19:22:15.799Z,2.42
2022-08-02T19:24:19.765Z,2.40
2022-08-02T19:26:51.313Z,1.95
2022-08-02T19:29:42.259Z,2.10
2022-08-02T19:32:39.125Z,2.25
2022-08-02T19:34:55.578Z,2.50
2022-08-02T19:37:22.540Z,2.22
2022-08-02T19:39:50.019Z,2.42
2022-08-02T19:42:17.373Z,2.00
2022-08-02T19:44:46.295Z,2.50
2022-08-02T19:47:19.389Z,2.10
2022-08-02T19:49:48.786Z,2.22
2022-08-02T19:52:21.334Z,2.20
2022-08-02T19:54:55.515Z,2.00
2022-08-02T19:57:25.376Z,2.42
2022-08-02T19:59:53.878Z,2.45
2022-08-02T20:02:21.274Z,2.40
2022-08-02T20:04:50.379Z,2.47
2022-08-02T20:07:55.205Z,2.50
2022-08-02T20:10:06.951Z,2.00
2022-08-02T20:12:39.796Z,2.30
2022-08-02T20:15:14.671Z,2.30
2022-08-02T20:17:47.189Z,2.90
2022-08-02T20:20:14.653Z,2.42
2022-08-02T20:23:33.907Z,2.70
2022-08-02T20:25:57.299Z,2.30
2022-08-02T20:28:24.155Z,2.55
2022-08-02T20:30:51.198Z,2.20
2022-08-02T20:33:21.090Z,2.75
2022-08-02T20:35:49.138Z,2.88
2022-08-02T20:38:16.557Z,2.90
2022-08-02T20:40:43.902Z,2.88
2022-08-02T20:43:10.905Z,3.50
2022-08-02T20:45:37.617Z,3.33
2022-08-02T20:48:04.658Z,3.65
2022-08-02T20:50:49.517Z,3.80
2022-08-02T20:53:23.307Z,3.40
2022-08-02T20:55:53.707Z,3.63
2022-08-02T20:58:20.601Z,4.15
2022-08-02T21:00:56.901Z,3.67
2022-08-02T21:03:23.824Z,3.75
2022-08-02T21:06:11.573Z,3.92
2022-08-02T21:08:42.300Z,3.70
2022-08-02T21:11:14.221Z,3.58
2022-08-02T21:13:46.435Z,3.35
2022-08-02T21:16:18.488Z,3.20
2022-08-02T21:18:48.594Z,3.58
2022-08-02T21:21:16.634Z,3.30
2022-08-02T21:23:48.433Z,2.88
2022-08-02T21:26:16.226Z,3.10
2022-08-02T21:28:52.709Z,4.95
2022-08-02T21:31:19.504Z,3.33
2022-08-02T21:33:56.605Z,2.88
2022-08-02T21:36:31.173Z,3.15
2022-08-02T21:39:05.111Z,2.78
2022-08-02T21:41:40.002Z,3.00
2022-08-02T21:44:18.209Z,3.22
2022-08-02T21:46:49.911Z,3.33
2022-08-02T21:49:21.009Z,3.38
2022-08-02T21:52:08.381Z,3.28
2022-08-02T21:54:35.388Z,3.30
2022-08-02T21:57:07.634Z,3.22
2022-08-02T21:59:45.252Z,3.28
2022-08-02T22:02:13.178Z,2.97
2022-08-02T22:04:48.052Z,2.83
2022-08-02T22:07:24.086Z,2.95
2022-08-02T22:09:51.976Z,3.75
2022-08-02T22:12:19.438Z,3.33
2022-08-02T22:14:54.051Z,3.05
2022-08-02T22:17:52.141Z,3.42
2022-08-02T22:20:12.582Z,3.38
2022-08-02T22:22:40.283Z,3.53
2022-08-02T22:25:10.210Z,3.22
2022-08-02T22:28:15.834Z,3.40
2022-08-02T22:30:41.717Z,3.60
2022-08-02T22:33:33.317Z,3.47
2022-08-02T22:36:00.978Z,3.35
2022-08-02T22:38:28.535Z,3.25
2022-08-02T22:40:55.274Z,3.33
2022-08-02T22:43:22.873Z,3.10
2022-08-02T22:45:50.671Z,3.13
2022-08-02T22:48:17.391Z,3.47
2022-08-02T22:50:44.204Z,3.28
2022-08-02T22:53:10.924Z,3.17
2022-08-02T22:55:41.257Z,3.03
2022-08-02T22:58:09.179Z,3.22
2022-08-02T23:00:36.071Z,3.30
2022-08-02T23:03:03.158Z,3.25
2022-08-02T23:05:33.635Z,3.38
2022-08-02T23:08:00.477Z,3.47
2022-08-02T23:10:27.668Z,3.63
2022-08-02T23:12:56.709Z,3.03
2022-08-02T23:15:23.751Z,3.47
2022-08-02T23:18:09.023Z,3.60
2022-08-02T23:20:36.040Z,3.45
2022-08-02T23:23:02.920Z,3.40
2022-08-02T23:25:38.237Z,3.22
2022-08-02T23:28:05.111Z,3.45
2022-08-02T23:30:31.923Z,3.33
2022-08-02T23:32:58.663Z,3.10
2022-08-02T23:35:25.485Z,3.17
2022-08-02T23:37:59.161Z,3.42
2022-08-02T23:40:39.194Z,3.70
2022-08-02T23:43:13.362Z,3.95
2022-08-02T23:45:44.134Z,3.50
2022-08-02T23:48:10.879Z,3.60
2022-08-02T23:50:37.681Z,3.53
2022-08-02T23:53:04.374Z,3.50
2022-08-02T23:55:31.112Z,3.97
2022-08-02T23:57:57.804Z,3.60
